createdAt,value
2023-05-10T03:09:36.432Z,15.35
2023-05-10T03:12:33.166Z,15.52
2023-05-10T03:15:06.136Z,15.34
2023-05-10T03:17:47.158Z,15.53
2023-05-10T03:20:34.597Z,15.34
2023-05-10T03:23:24.365Z,15.24
2023-05-10T03:25:51.819Z,15.19
2023-05-10T03:28:20.373Z,15.26
2023-05-10T03:30:47.997Z,15.30
2023-05-10T03:33:15.211Z,15.32
2023-05-10T03:35:46.703Z,15.53
2023-05-10T03:38:16.342Z,15.19
2023-05-10T03:40:42.968Z,15.21
2023-05-10T03:43:12.180Z,15.34
2023-05-10T03:45:38.870Z,15.04
2023-05-10T03:48:06.597Z,15.32
2023-05-10T03:50:33.308Z,14.99
2023-05-10T03:52:59.999Z,14.98
2023-05-10T03:55:30.800Z,15.04
2023-05-10T03:57:57.568Z,14.89
2023-05-10T04:00:24.636Z,14.71
2023-05-10T04:02:54.518Z,15.22
2023-05-10T04:05:21.307Z,15.04
2023-05-10T04:07:50.148Z,14.98
2023-05-10T04:10:17.688Z,15.07
2023-05-10T04:12:47.081Z,14.96
2023-05-10T04:15:13.718Z,14.86
2023-05-10T04:17:42.697Z,14.84
2023-05-10T04:20:10.162Z,14.87
2023-05-10T04:22:36.793Z,14.84
2023-05-10T04:25:06.220Z,14.81
2023-05-10T04:27:35.310Z,14.91
2023-05-10T04:30:02.202Z,14.95
2023-05-10T04:32:29.225Z,14.84
2023-05-10T04:34:55.869Z,14.54
2023-05-10T04:37:23.898Z,14.47
2023-05-10T04:39:51.213Z,14.35
2023-05-10T04:42:17.881Z,14.71
2023-05-10T04:44:46.800Z,14.40
2023-05-10T04:47:17.802Z,14.79
2023-05-10T04:49:44.377Z,14.54
2023-05-10T04:52:13.537Z,14.52
2023-05-10T04:54:40.212Z,14.56
2023-05-10T04:57:09.370Z,14.49
2023-05-10T04:59:37.972Z,14.29
2023-05-10T05:02:05.391Z,14.64
2023-05-10T05:04:32.541Z,14.56
2023-05-10T05:06:59.099Z,14.32
2023-05-10T05:09:25.796Z,14.60
2023-05-10T05:11:54.769Z,14.64
2023-05-10T05:14:26.007Z,14.73
2023-05-10T05:16:56.804Z,14.41
2023-05-10T05:19:23.805Z,14.72
2023-05-10T05:21:51.729Z,14.73
2023-05-10T05:24:18.678Z,14.64
2023-05-10T05:26:48.171Z,14.80
2023-05-10T05:29:14.783Z,14.29
2023-05-10T05:31:43.735Z,14.61
2023-05-10T05:34:10.446Z,14.48
2023-05-10T05:36:39.349Z,14.61
2023-05-10T05:39:06.082Z,14.76
2023-05-10T05:41:34.974Z,14.80
2023-05-10T05:44:01.521Z,14.73
2023-05-10T05:46:28.141Z,14.26
2023-05-10T05:48:54.853Z,14.56
2023-05-10T05:51:21.507Z,14.57
2023-05-10T05:53:48.093Z,14.69
2023-05-10T05:56:14.817Z,14.63
2023-05-10T05:58:41.455Z,14.82
2023-05-10T06:01:08.638Z,14.76
2023-05-10T06:03:35.409Z,14.39
2023-05-10T06:06:04.367Z,14.72
2023-05-10T06:08:30.900Z,14.94
2023-05-10T06:10:57.464Z,14.82
2023-05-10T06:13:24.050Z,14.87
2023-05-10T06:15:50.753Z,14.66
2023-05-10T06:18:19.721Z,15.07
2023-05-10T06:20:50.747Z,15.12
2023-05-10T06:23:19.674Z,15.15
2023-05-10T06:25:47.021Z,15.02
2023-05-10T06:28:13.560Z,15.40
2023-05-10T06:30:40.221Z,15.36
2023-05-10T06:33:06.837Z,15.15
2023-05-10T06:35:34.451Z,15.18
2023-05-10T06:38:03.630Z,15.31
2023-05-10T06:40:30.238Z,15.28
2023-05-10T06:42:56.904Z,15.36
2023-05-10T06:45:23.453Z,15.56
2023-05-10T06:47:50.090Z,15.48
2023-05-10T06:50:16.746Z,15.65
2023-05-10T06:52:44.175Z,15.33
2023-05-10T06:55:11.156Z,15.64
2023-05-10T06:57:39.053Z,15.69
2023-05-10T07:00:06.804Z,15.52
2023-05-10T07:02:33.724Z,15.55
2023-05-10T07:05:02.724Z,15.47
2023-05-10T07:07:30.242Z,15.62
2023-05-10T07:09:58.622Z,15.83
2023-05-10T07:12:25.804Z,15.88
2023-05-10T07:14:52.693Z,15.52
2023-05-10T07:17:19.492Z,15.70
2023-05-10T07:19:46.281Z,15.94
2023-05-10T07:22:13.264Z,15.87
2023-05-10T07:24:42.441Z,15.65
2023-05-10T07:27:10.014Z,15.55
2023-05-10T07:29:37.178Z,15.67
2023-05-10T07:32:04.009Z,15.70
2023-05-10T07:34:31.485Z,15.70
2023-05-10T07:37:00.672Z,15.47
2023-05-10T07:39:28.490Z,15.63
2023-05-10T07:41:56.452Z,15.43
2023-05-10T07:44:23.344Z,15.54
2023-05-10T07:46:53.568Z,15.59
2023-05-10T07:49:22.796Z,15.52
2023-05-10T07:51:49.590Z,15.52
2023-05-10T07:54:16.261Z,15.68
2023-05-10T07:56:46.679Z,15.48
2023-05-10T07:59:17.317Z,15.99
2023-05-10T08:01:44.435Z,15.99
2023-05-10T08:04:11.607Z,15.89
2023-05-10T08:06:38.337Z,15.82
2023-05-10T08:09:04.976Z,15.96
2023-05-10T08:11:32.804Z,15.67
2023-05-10T08:14:00.290Z,15.55
2023-05-10T08:16:27.377Z,15.84
2023-05-10T08:18:56.761Z,15.90
2023-05-10T08:21:24.493Z,16.20
2023-05-10T08:23:51.363Z,16.23
2023-05-10T08:26:17.962Z,16.27
2023-05-10T08:28:44.667Z,16.26
2023-05-10T08:31:13.752Z,16.59
2023-05-10T08:33:42.151Z,16.78
2023-05-10T08:36:09.690Z,16.83
2023-05-10T08:38:36.329Z,16.95
2023-05-10T08:41:04.066Z,16.77
2023-05-10T08:43:31.243Z,16.66
2023-05-10T08:46:01.739Z,16.58
2023-05-10T08:48:30.119Z,16.69
2023-05-10T08:50:59.346Z,16.52
2023-05-10T08:53:28.295Z,16.63
2023-05-10T08:55:58.001Z,16.45
2023-05-10T08:58:34.086Z,15.83
2023-05-10T09:01:01.955Z,15.44
2023-05-10T09:03:28.813Z,15.15
2023-05-10T09:05:56.852Z,15.21
2023-05-10T09:08:27.086Z,15.19
2023-05-10T09:10:55.709Z,15.21
2023-05-10T09:13:23.678Z,15.54
2023-05-10T09:15:51.198Z,15.62
2023-05-10T09:18:17.865Z,15.41
2023-05-10T09:20:44.521Z,15.91
2023-05-10T09:23:11.042Z,15.66
2023-05-10T09:25:39.518Z,15.95
2023-05-10T09:28:10.542Z,16.11
2023-05-10T09:30:37.596Z,16.70
2023-05-10T09:33:04.612Z,16.67
2023-05-10T09:35:33.133Z,17.02
2023-05-10T09:38:05.830Z,17.40
2023-05-10T09:40:33.043Z,17.47
2023-05-10T09:43:08.684Z,17.26
2023-05-10T09:45:38.523Z,17.86
2023-05-10T09:48:06.323Z,18.30
2023-05-10T09:50:32.989Z,18.38
2023-05-10T09:53:01.837Z,18.12
2023-05-10T09:55:41.731Z,17.88
2023-05-10T09:58:11.651Z,17.87
2023-05-10T10:00:39.357Z,17.89
2023-05-10T10:03:06.623Z,18.11
2023-05-10T10:05:36.896Z,18.43
2023-05-10T10:08:05.700Z,18.64
2023-05-10T10:10:33.826Z,18.28
2023-05-10T10:13:00.842Z,18.45
2023-05-10T10:15:27.566Z,18.67
2023-05-10T10:17:54.915Z,18.46
2023-05-10T10:20:23.507Z,18.97
2023-05-10T10:22:50.316Z,19.01
2023-05-10T10:25:18.710Z,19.12
2023-05-10T10:27:54.640Z,18.48
2023-05-10T10:30:43.366Z,18.22
2023-05-10T10:33:34.830Z,17.85
2023-05-10T10:36:03.630Z,17.67
2023-05-10T10:38:48.566Z,17.27
2023-05-10T10:41:33.366Z,17.20
2023-05-10T10:44:31.551Z,17.60
2023-05-10T10:47:06.383Z,17.50
2023-05-10T10:49:59.153Z,17.39
2023-05-10T10:52:31.979Z,17.26
2023-05-10T10:55:02.456Z,17.11
2023-05-10T10:57:32.044Z,17.23
2023-05-10T11:00:23.508Z,17.14
2023-05-10T11:02:58.927Z,17.32
2023-05-10T11:05:37.455Z,17.55
2023-05-10T11:08:09.739Z,17.43
2023-05-10T11:10:36.496Z,17.75
2023-05-10T11:13:06.951Z,17.90
2023-05-10T11:15:35.631Z,17.90
2023-05-10T11:18:22.496Z,17.96
2023-05-10T11:21:06.269Z,18.13
2023-05-10T11:23:48.105Z,18.25
2023-05-10T11:26:15.235Z,18.39
2023-05-10T11:28:46.221Z,17.97
2023-05-10T11:31:16.950Z,17.41
2023-05-10T11:33:54.655Z,17.36
2023-05-10T11:36:34.812Z,17.62
2023-05-10T11:39:01.414Z,17.59
2023-05-10T11:41:30.425Z,17.41
2023-05-10T11:43:58.716Z,17.34
2023-05-10T11:46:27.738Z,17.64
2023-05-10T11:49:02.885Z,17.66
2023-05-10T11:51:29.678Z,17.58
2023-05-10T11:53:57.646Z,17.62
2023-05-10T11:56:24.544Z,17.73
2023-05-10T11:58:58.649Z,17.82
2023-05-10T12:01:27.736Z,17.84
2023-05-10T12:04:01.432Z,17.61
2023-05-10T12:06:30.311Z,17.69
2023-05-10T12:08:56.802Z,17.57
2023-05-10T12:11:26.544Z,17.58
2023-05-10T12:13:54.071Z,17.63
2023-05-10T12:16:23.094Z,17.74
2023-05-10T12:18:51.942Z,17.87
2023-05-10T12:21:20.362Z,18.10
2023-05-10T12:23:52.689Z,18.13
2023-05-10T12:26:19.490Z,18.10
2023-05-10T12:28:46.051Z,18.07
2023-05-10T12:31:12.585Z,18.38
2023-05-10T12:33:42.655Z,18.26
2023-05-10T12:36:17.057Z,17.82
2023-05-10T12:38:48.540Z,17.79
2023-05-10T12:41:18.154Z,17.82
2023-05-10T12:43:46.330Z,17.59
2023-05-10T12:46:15.377Z,17.90
2023-05-10T12:48:43.518Z,18.21
2023-05-10T12:51:10.603Z,18.33
2023-05-10T12:53:37.645Z,18.11
2023-05-10T12:56:04.523Z,17.77
2023-05-10T12:58:35.997Z,17.70
2023-05-10T13:01:03.527Z,17.61
2023-05-10T13:03:30.276Z,17.67
2023-05-10T13:05:56.849Z,17.58
2023-05-10T13:08:23.361Z,17.25
2023-05-10T13:10:50.084Z,17.18
2023-05-10T13:13:16.568Z,17.29
2023-05-10T13:15:43.094Z,16.98
2023-05-10T13:18:09.591Z,16.98
2023-05-10T13:20:36.206Z,17.06
2023-05-10T13:23:03.939Z,16.91
2023-05-10T13:25:30.945Z,17.10
2023-05-10T13:27:57.495Z,17.38
2023-05-10T13:30:24.923Z,17.67
2023-05-10T13:32:51.538Z,17.68
2023-05-10T13:35:18.112Z,17.54
2023-05-10T13:37:44.679Z,17.68
2023-05-10T13:40:11.500Z,18.01
2023-05-10T13:42:38.473Z,18.10
2023-05-10T13:45:05.662Z,18.06
2023-05-10T13:47:32.328Z,18.07
2023-05-10T13:49:59.430Z,18.08
2023-05-10T13:52:26.967Z,18.02
2023-05-10T13:54:55.897Z,17.85
2023-05-10T13:57:23.095Z,17.59
2023-05-10T13:59:49.885Z,17.74
2023-05-10T14:02:16.607Z,17.79
2023-05-10T14:04:43.156Z,17.60
2023-05-10T14:07:09.676Z,17.40
2023-05-10T14:09:36.453Z,17.26
2023-05-10T14:12:03.155Z,17.17
2023-05-10T14:14:30.409Z,17.06
2023-05-10T14:16:57.165Z,17.29
2023-05-10T14:19:23.725Z,17.08
2023-05-10T14:21:50.427Z,17.11
2023-05-10T14:24:17.008Z,17.21
2023-05-10T14:26:43.520Z,17.27
2023-05-10T14:29:12.287Z,17.32
2023-05-10T14:31:39.275Z,17.50
2023-05-10T14:34:06.622Z,17.50
2023-05-10T14:36:33.356Z,17.70
2023-05-10T14:38:59.960Z,17.58
2023-05-10T14:41:26.470Z,17.49
2023-05-10T14:43:53.444Z,17.55
2023-05-10T14:46:20.095Z,17.57
2023-05-10T14:48:46.638Z,17.60
2023-05-10T14:51:13.198Z,17.89
2023-05-10T14:53:39.772Z,17.87
2023-05-10T14:56:06.461Z,17.86
2023-05-10T14:58:34.323Z,17.87
2023-05-10T15:01:01.219Z,17.58
2023-05-10T15:03:28.451Z,17.21
2023-05-10T15:05:56.995Z,16.56
2023-05-10T15:08:25.433Z,16.63
2023-05-10T15:10:52.673Z,16.70
2023-05-10T15:13:19.155Z,16.53
2023-05-10T15:15:45.750Z,16.33
2023-05-10T15:18:12.608Z,16.66
2023-05-10T15:20:39.751Z,15.57
2023-05-10T15:23:09.160Z,15.35
2023-05-10T15:25:38.170Z,16.13
2023-05-10T15:28:08.772Z,15.92
2023-05-10T15:30:35.698Z,15.49
2023-05-10T15:33:03.029Z,16.77
2023-05-10T15:35:29.771Z,16.37
2023-05-10T15:37:56.373Z,16.53
2023-05-10T15:40:22.910Z,16.54
2023-05-10T15:42:49.425Z,16.42
2023-05-10T15:45:16.744Z,16.45
2023-05-10T15:47:45.011Z,16.37
2023-05-10T15:50:12.373Z,16.25
2023-05-10T15:52:38.886Z,16.37
2023-05-10T15:55:13.196Z,16.47
2023-05-10T15:57:41.552Z,16.73
2023-05-10T16:00:09.853Z,16.58
2023-05-10T16:02:42.798Z,16.64
2023-05-10T16:05:10.111Z,16.49
2023-05-10T16:07:36.655Z,16.24
2023-05-10T16:10:06.425Z,16.33
2023-05-10T16:12:33.265Z,16.36
2023-05-10T16:14:59.890Z,16.37
2023-05-10T16:17:26.649Z,16.41
2023-05-10T16:19:53.346Z,16.58
2023-05-10T16:22:22.171Z,16.59
2023-05-10T16:24:48.806Z,16.62
2023-05-10T16:27:15.440Z,16.49
2023-05-10T16:29:41.979Z,16.43
2023-05-10T16:32:08.555Z,16.22
2023-05-10T16:34:35.162Z,16.16
2023-05-10T16:37:01.733Z,16.08
2023-05-10T16:39:28.245Z,16.16
2023-05-10T16:41:54.876Z,15.88
2023-05-10T16:44:23.583Z,15.85
2023-05-10T16:46:52.618Z,15.71
2023-05-10T16:49:19.187Z,15.67
2023-05-10T16:51:45.944Z,15.78
2023-05-10T16:54:12.539Z,15.81
2023-05-10T16:56:39.121Z,15.82
2023-05-10T16:59:05.894Z,15.71
2023-05-10T17:01:34.061Z,15.71
2023-05-10T17:04:19.877Z,15.76
2023-05-10T17:07:05.414Z,15.81
2023-05-10T17:09:52.227Z,15.78
2023-05-10T17:12:39.104Z,15.63
2023-05-10T17:15:26.228Z,15.65
2023-05-10T17:18:13.223Z,15.74
2023-05-10T17:21:00.414Z,15.57
2023-05-10T17:23:47.263Z,15.57
2023-05-10T17:26:34.540Z,15.57
2023-05-10T17:29:21.460Z,15.60
2023-05-10T17:32:09.345Z,15.46
2023-05-10T17:34:56.207Z,15.62
2023-05-10T17:37:44.023Z,15.75
2023-05-10T17:40:30.959Z,15.86
2023-05-10T17:43:17.765Z,15.67
2023-05-10T17:46:04.768Z,15.54
2023-05-10T17:48:51.681Z,15.58
2023-05-10T17:51:39.220Z,15.72
2023-05-10T17:54:26.126Z,15.75
2023-05-10T17:57:12.973Z,15.62
2023-05-10T17:59:59.899Z,15.53
2023-05-10T18:02:46.816Z,15.34
2023-05-10T18:05:37.617Z,15.24
2023-05-10T18:08:27.148Z,15.46
2023-05-10T18:11:13.975Z,15.59
2023-05-10T18:14:00.847Z,15.40
2023-05-10T18:16:47.748Z,15.42
2023-05-10T18:19:34.606Z,15.47
2023-05-10T18:22:21.625Z,15.45
2023-05-10T18:25:08.938Z,15.36
2023-05-10T18:27:55.916Z,15.47
2023-05-10T18:30:42.798Z,15.47
2023-05-10T18:33:29.709Z,15.59
2023-05-10T18:36:16.889Z,15.55
2023-05-10T18:39:03.930Z,15.45
2023-05-10T18:41:50.946Z,15.44
2023-05-10T18:44:37.799Z,15.44
2023-05-10T18:47:26.668Z,15.44
2023-05-10T18:50:13.888Z,15.27
2023-05-10T18:53:00.721Z,15.33
2023-05-10T18:55:55.630Z,15.56
2023-05-10T18:58:42.472Z,15.39
2023-05-10T19:01:29.325Z,15.28
2023-05-10T19:04:16.193Z,15.41
2023-05-10T19:07:03.464Z,15.55
2023-05-10T19:09:50.490Z,15.44
2023-05-10T19:12:37.464Z,15.37
2023-05-10T19:15:24.605Z,15.42
2023-05-10T19:18:11.860Z,15.44
2023-05-10T19:20:58.859Z,15.42
2023-05-10T19:23:48.191Z,15.33
2023-05-10T19:26:36.301Z,15.33
2023-05-10T19:29:24.133Z,15.34
2023-05-10T19:32:11.974Z,15.43
2023-05-10T19:34:58.813Z,15.48
2023-05-10T19:37:47.144Z,15.35
2023-05-10T19:40:34.175Z,15.29
2023-05-10T19:43:22.161Z,15.39
